Main page


Airports :

Cranfield, England

Cranfield Airport

latitude: 52-04N, longitude: 000-37W, elevation: 111 m

Current weather observation

The report was made 5 hours and 9 minutes ago, at 17:50 UTC
Wind 10 kt from the West/Southwest
Temperature 7°C
Humidity 70%
Pressure 1014 hPa
Visibility 10 km or more
Broken clouds at a height of 3100 ft

METAR: EGTC 221750Z 24010KT 9999 BKN031 07/02 Q1014

Time: 22:59 (22:59 UTC)


The report was made 9 hours and 4 minutes ago, at 13:55 UTC
Forecast valid from 22 at 15 UTC to 22 at 19 UTC
Wind 10 kt from the West
Visibility 10 km or more
Scattered clouds at a height of 3000 ft

TAF: EGTC 221355Z 2215/2219 26010KT 9999 SCT030

Weather observations and forecasts of more than 4000 airports (METAR and TAF reports).

The available stations are represented by yellow and red dots on the map.

Hover mouse over dot to see the name of the station.

Then click to see weather observations and forecasts.

To change the map : click on the green buttons with a black cross to zoom in, on the green button with a dash to zoom out, or on the green arrows for adjacent maps.